createdAt,value
2022-12-31T00:00:12.955Z,14.10
2022-12-31T00:01:13.058Z,14.00
2022-12-31T00:02:13.162Z,14.20
2022-12-31T00:03:13.264Z,14.30
2022-12-31T00:04:13.627Z,14.20
2022-12-31T00:05:13.555Z,14.20
2022-12-31T00:06:13.548Z,14.10
2022-12-31T00:07:13.626Z,14.20
2022-12-31T00:08:13.628Z,14.20
2022-12-31T00:09:13.886Z,14.00
2022-12-31T00:10:12.859Z,14.00
2022-12-31T00:11:13.813Z,14.10
2022-12-31T00:12:14.305Z,14.20
2022-12-31T00:13:13.209Z,14.20
2022-12-31T00:14:13.228Z,14.10
2022-12-31T00:15:13.147Z,14.10
2022-12-31T00:16:13.128Z,14.10
2022-12-31T00:17:13.281Z,13.70
2022-12-31T00:18:13.342Z,13.80
2022-12-31T00:19:13.398Z,13.70
2022-12-31T00:20:13.385Z,13.60
2022-12-31T00:21:13.596Z,13.80
2022-12-31T00:22:18.580Z,13.70
2022-12-31T00:23:18.530Z,13.60
2022-12-31T00:24:14.522Z,13.70
2022-12-31T00:25:13.501Z,13.50
2022-12-31T00:26:13.446Z,13.70
2022-12-31T00:27:13.947Z,13.70
2022-12-31T00:28:12.924Z,13.70
2022-12-31T00:29:12.861Z,13.70
2022-12-31T00:30:14.187Z,13.70
2022-12-31T00:31:13.209Z,13.80
2022-12-31T00:32:13.276Z,13.70
2022-12-31T00:33:13.161Z,13.60
2022-12-31T00:34:13.583Z,13.80
2022-12-31T00:35:13.967Z,13.70
2022-12-31T00:36:12.953Z,13.80
2022-12-31T00:37:12.852Z,13.60
2022-12-31T00:38:13.993Z,13.80
2022-12-31T00:39:13.252Z,13.80
2022-12-31T00:40:13.404Z,13.40
2022-12-31T00:41:13.523Z,13.40
2022-12-31T00:42:13.400Z,13.50
2022-12-31T00:43:13.799Z,13.40
2022-12-31T00:44:13.841Z,13.50
2022-12-31T00:45:13.822Z,13.40
2022-12-31T00:46:13.862Z,13.50
2022-12-31T00:47:13.842Z,13.40
2022-12-31T00:48:13.786Z,13.50
2022-12-31T00:49:13.941Z,13.60
2022-12-31T00:50:13.008Z,13.50
2022-12-31T00:51:13.183Z,13.70
2022-12-31T00:52:13.131Z,13.70
2022-12-31T00:53:13.035Z,13.50
2022-12-31T00:54:12.911Z,13.50
2022-12-31T00:55:13.360Z,14.60
2022-12-31T00:56:13.329Z,14.20
2022-12-31T00:57:13.430Z,14.00
2022-12-31T00:58:13.826Z,14.00
2022-12-31T00:59:14.039Z,14.10
2022-12-31T01:00:13.088Z,14.10
2022-12-31T01:01:13.740Z,14.00
2022-12-31T01:02:13.947Z,14.10
2022-12-31T01:03:13.101Z,13.80
2022-12-31T01:04:13.544Z,13.90
2022-12-31T01:05:13.557Z,14.00
2022-12-31T01:06:13.582Z,13.80
2022-12-31T01:07:13.585Z,13.90
2022-12-31T01:08:13.566Z,14.00
2022-12-31T01:09:13.804Z,14.00
2022-12-31T01:10:13.933Z,14.10
2022-12-31T01:11:13.238Z,14.00
2022-12-31T01:12:13.323Z,13.80
2022-12-31T01:13:13.288Z,14.10
2022-12-31T01:14:13.276Z,13.90
2022-12-31T01:15:13.225Z,13.80
2022-12-31T01:16:13.449Z,13.90
2022-12-31T01:17:13.375Z,13.80
2022-12-31T01:18:13.649Z,13.80
2022-12-31T01:19:14.098Z,14.00
2022-12-31T01:20:13.011Z,14.20
2022-12-31T01:21:13.267Z,14.30
2022-12-31T01:22:13.293Z,14.40
2022-12-31T01:23:13.719Z,14.40
2022-12-31T01:24:14.318Z,14.30
2022-12-31T01:25:13.527Z,14.10
2022-12-31T01:26:13.834Z,14.20
2022-12-31T01:27:14.065Z,14.40
2022-12-31T01:28:13.199Z,14.50
2022-12-31T01:29:13.251Z,14.30
2022-12-31T01:30:13.346Z,14.40
2022-12-31T01:31:13.535Z,14.60
2022-12-31T01:32:19.095Z,14.70
2022-12-31T01:33:13.253Z,14.70
2022-12-31T01:34:13.254Z,14.70
2022-12-31T01:35:13.243Z,14.60
2022-12-31T01:36:13.477Z,14.70
2022-12-31T01:37:13.572Z,14.60
2022-12-31T01:38:13.730Z,14.50
2022-12-31T01:39:13.585Z,14.30
2022-12-31T01:40:14.005Z,14.20
2022-12-31T01:41:13.320Z,14.50
2022-12-31T01:42:13.622Z,14.50
2022-12-31T01:43:13.966Z,14.50
2022-12-31T01:44:13.256Z,14.60
2022-12-31T01:45:13.332Z,14.60
2022-12-31T01:46:13.387Z,14.70
2022-12-31T01:47:13.363Z,14.90
2022-12-31T01:48:13.329Z,14.70
2022-12-31T01:49:13.544Z,14.50
2022-12-31T01:50:13.785Z,14.30
2022-12-31T01:51:13.757Z,14.80
2022-12-31T01:52:13.742Z,15.00
2022-12-31T01:53:13.745Z,14.90
2022-12-31T01:54:13.607Z,14.50
2022-12-31T01:55:13.959Z,14.70
2022-12-31T01:56:12.852Z,14.80
2022-12-31T01:57:13.905Z,14.90
2022-12-31T01:58:13.125Z,14.60
2022-12-31T01:59:13.342Z,14.60
2022-12-31T02:00:18.496Z,14.60
2022-12-31T02:01:13.686Z,14.30
2022-12-31T02:02:13.666Z,14.50
2022-12-31T02:03:13.669Z,14.60
2022-12-31T02:04:13.861Z,14.80
2022-12-31T02:05:13.754Z,14.40
2022-12-31T02:06:13.653Z,14.30
2022-12-31T02:07:13.928Z,14.60
2022-12-31T02:08:12.977Z,14.40
2022-12-31T02:09:13.143Z,14.50
2022-12-31T02:10:13.253Z,14.10
2022-12-31T02:11:13.198Z,14.40
2022-12-31T02:12:13.350Z,14.40
2022-12-31T02:13:13.490Z,14.50
2022-12-31T02:14:13.777Z,14.40
2022-12-31T02:15:13.712Z,14.30
2022-12-31T02:16:13.817Z,14.50
2022-12-31T02:17:13.856Z,14.40
2022-12-31T02:18:13.930Z,14.50
2022-12-31T02:19:12.972Z,14.30
2022-12-31T02:20:13.005Z,14.40
2022-12-31T02:21:12.988Z,14.60
2022-12-31T02:22:13.119Z,15.10
2022-12-31T02:23:13.075Z,14.80
2022-12-31T02:24:13.260Z,14.80
2022-12-31T02:25:13.267Z,14.50
2022-12-31T02:26:13.201Z,14.60
2022-12-31T02:27:13.346Z,14.60
2022-12-31T02:28:13.316Z,14.80
2022-12-31T02:29:13.251Z,14.70
2022-12-31T02:30:13.292Z,15.10
2022-12-31T02:31:13.563Z,14.70
2022-12-31T02:32:13.520Z,14.80
2022-12-31T02:33:13.784Z,15.00
2022-12-31T02:34:15.522Z,15.10
2022-12-31T02:35:13.549Z,15.10
2022-12-31T02:36:13.579Z,15.30
2022-12-31T02:37:13.881Z,15.20
2022-12-31T02:38:14.102Z,15.20
2022-12-31T02:39:13.434Z,15.30
2022-12-31T02:40:13.712Z,15.50
2022-12-31T02:41:13.780Z,15.30
2022-12-31T02:42:13.723Z,15.30
2022-12-31T02:43:13.664Z,15.40
2022-12-31T02:44:13.633Z,15.40
2022-12-31T02:45:13.516Z,15.60
2022-12-31T02:46:13.748Z,15.40
2022-12-31T02:47:14.256Z,15.50
2022-12-31T02:48:13.180Z,15.60
2022-12-31T02:49:13.269Z,15.60
2022-12-31T02:50:13.225Z,15.40
2022-12-31T02:51:13.228Z,15.60
2022-12-31T02:52:13.195Z,15.50
2022-12-31T02:53:13.109Z,15.20
2022-12-31T02:54:13.387Z,15.20
2022-12-31T02:55:13.657Z,15.30
2022-12-31T02:56:13.575Z,15.20
2022-12-31T02:57:15.440Z,15.30
2022-12-31T02:58:13.020Z,15.30
2022-12-31T02:59:12.913Z,15.40
2022-12-31T03:00:13.010Z,15.50
2022-12-31T03:01:13.333Z,15.50
2022-12-31T03:02:13.550Z,15.40
2022-12-31T03:03:13.668Z,15.60
2022-12-31T03:04:13.926Z,15.40
2022-12-31T03:05:13.070Z,15.50
2022-12-31T03:06:13.175Z,15.40
2022-12-31T03:07:13.385Z,15.20
2022-12-31T03:08:13.227Z,15.30
2022-12-31T03:09:13.806Z,15.10
2022-12-31T03:10:14.239Z,15.10
2022-12-31T03:11:13.588Z,15.00
2022-12-31T03:12:13.901Z,15.10
2022-12-31T03:13:12.880Z,15.10
2022-12-31T03:14:12.954Z,15.10
2022-12-31T03:15:12.838Z,15.00
2022-12-31T03:16:14.209Z,14.90
2022-12-31T03:17:13.448Z,14.90
2022-12-31T03:18:13.882Z,15.20
2022-12-31T03:19:13.191Z,15.00
2022-12-31T03:20:13.163Z,15.10
2022-12-31T03:21:13.079Z,14.90
2022-12-31T03:22:13.139Z,14.80
2022-12-31T03:23:13.202Z,15.00
2022-12-31T03:24:13.089Z,15.10
2022-12-31T03:25:13.065Z,15.10
2022-12-31T03:26:13.114Z,15.00
2022-12-31T03:27:18.323Z,15.00
2022-12-31T03:28:13.578Z,15.10
2022-12-31T03:29:13.469Z,15.30
2022-12-31T03:30:13.622Z,15.00
2022-12-31T03:31:13.750Z,15.10
2022-12-31T03:32:13.930Z,15.00
2022-12-31T03:33:12.956Z,14.90
2022-12-31T03:34:12.914Z,15.00
2022-12-31T03:35:12.877Z,15.00
2022-12-31T03:36:12.843Z,15.00
2022-12-31T03:37:13.827Z,15.10
2022-12-31T03:38:13.925Z,15.00
2022-12-31T03:39:12.848Z,15.00
2022-12-31T03:40:13.975Z,15.20
2022-12-31T03:41:12.928Z,15.00
2022-12-31T03:42:12.927Z,15.10
2022-12-31T03:43:12.945Z,15.10
2022-12-31T03:44:12.949Z,15.00
2022-12-31T03:45:13.100Z,15.10
2022-12-31T03:46:13.149Z,15.00
2022-12-31T03:47:13.347Z,14.90
2022-12-31T03:48:13.578Z,15.10
2022-12-31T03:49:13.469Z,15.10
2022-12-31T03:50:13.499Z,15.40
2022-12-31T03:51:13.434Z,15.30
2022-12-31T03:52:13.372Z,15.30
2022-12-31T03:53:13.440Z,15.30
2022-12-31T03:54:13.421Z,15.30
2022-12-31T03:55:13.703Z,15.20
2022-12-31T03:56:13.665Z,15.50
2022-12-31T03:57:13.788Z,15.50
2022-12-31T03:58:13.756Z,15.60
2022-12-31T03:59:13.674Z,15.60
2022-12-31T04:00:14.154Z,15.50
2022-12-31T04:01:13.363Z,15.80
2022-12-31T04:02:13.744Z,15.80
2022-12-31T04:03:14.156Z,15.80
2022-12-31T04:04:13.301Z,15.80
2022-12-31T04:05:13.409Z,16.00
2022-12-31T04:06:13.436Z,16.10
2022-12-31T04:07:13.462Z,16.20
2022-12-31T04:08:13.392Z,16.00
2022-12-31T04:09:13.823Z,16.10
2022-12-31T04:10:13.740Z,15.90
2022-12-31T04:11:20.494Z,16.10
2022-12-31T04:12:12.863Z,16.10
2022-12-31T04:13:13.959Z,16.10
2022-12-31T04:14:13.039Z,16.00
2022-12-31T04:15:13.211Z,16.30
2022-12-31T04:16:13.640Z,16.20
2022-12-31T04:17:13.813Z,16.40
2022-12-31T04:18:14.051Z,16.50
2022-12-31T04:19:13.056Z,16.20
2022-12-31T04:20:13.103Z,16.30
2022-12-31T04:21:13.021Z,16.40
2022-12-31T04:22:13.142Z,16.50
2022-12-31T04:23:13.130Z,16.50
2022-12-31T04:24:13.390Z,16.40
2022-12-31T04:25:13.466Z,16.50
2022-12-31T04:26:13.475Z,16.30
2022-12-31T04:27:13.872Z,16.40
2022-12-31T04:28:13.957Z,16.50
2022-12-31T04:29:12.894Z,16.50
2022-12-31T04:30:14.133Z,16.40
2022-12-31T04:31:13.241Z,16.50
2022-12-31T04:32:13.532Z,16.50
2022-12-31T04:33:14.296Z,16.60
2022-12-31T04:34:13.194Z,16.70
2022-12-31T04:35:13.128Z,16.40
2022-12-31T04:36:13.093Z,16.60
2022-12-31T04:37:13.249Z,16.50
2022-12-31T04:38:13.284Z,16.40
2022-12-31T04:39:13.365Z,16.50
2022-12-31T04:40:13.307Z,16.30
2022-12-31T04:41:13.455Z,16.10
2022-12-31T04:42:13.272Z,16.10
2022-12-31T04:43:13.243Z,16.00
2022-12-31T04:44:13.618Z,16.00
2022-12-31T04:45:13.552Z,15.90
2022-12-31T04:46:13.745Z,15.80
2022-12-31T04:47:17.405Z,16.00
2022-12-31T04:48:13.599Z,16.20
2022-12-31T04:49:13.942Z,16.00
2022-12-31T04:50:12.954Z,16.00
2022-12-31T04:51:12.985Z,16.10
2022-12-31T04:52:12.926Z,16.30
2022-12-31T04:53:13.083Z,16.30
2022-12-31T04:54:13.093Z,16.20
2022-12-31T04:55:13.021Z,16.40
2022-12-31T04:56:12.975Z,16.10
2022-12-31T04:57:13.096Z,16.30
2022-12-31T04:58:13.021Z,16.40
2022-12-31T04:59:12.927Z,16.50
2022-12-31T05:00:12.829Z,16.30
2022-12-31T05:01:14.049Z,16.50
2022-12-31T05:02:13.232Z,16.40
2022-12-31T05:03:13.627Z,16.60
2022-12-31T05:04:13.963Z,16.70
2022-12-31T05:05:13.048Z,16.60
2022-12-31T05:06:13.237Z,16.70
2022-12-31T05:07:13.110Z,16.80
2022-12-31T05:08:12.950Z,16.80
2022-12-31T05:09:13.224Z,17.00
2022-12-31T05:10:13.144Z,16.80
2022-12-31T05:11:13.125Z,17.00
2022-12-31T05:12:13.195Z,17.10
2022-12-31T05:13:13.471Z,16.80
2022-12-31T05:14:13.457Z,17.00
2022-12-31T05:15:13.448Z,17.10
2022-12-31T05:16:13.829Z,17.20
2022-12-31T05:17:13.926Z,17.10
2022-12-31T05:18:12.827Z,17.00
2022-12-31T05:19:14.061Z,17.10
2022-12-31T05:20:18.074Z,17.20
2022-12-31T05:21:13.164Z,17.10
2022-12-31T05:22:13.390Z,17.00
2022-12-31T05:23:13.474Z,17.30
2022-12-31T05:24:13.817Z,17.40
2022-12-31T05:25:13.823Z,17.10
2022-12-31T05:26:14.076Z,17.10
2022-12-31T05:27:13.173Z,16.90
2022-12-31T05:28:13.123Z,17.00
2022-12-31T05:29:13.210Z,16.90
2022-12-31T05:30:13.257Z,17.30
2022-12-31T05:31:14.163Z,17.30
2022-12-31T05:32:13.200Z,17.00
2022-12-31T05:33:13.364Z,17.00
2022-12-31T05:34:13.316Z,17.10
2022-12-31T05:35:13.527Z,17.00
2022-12-31T05:36:13.433Z,17.00
2022-12-31T05:37:13.408Z,17.20
2022-12-31T05:38:13.544Z,17.20
2022-12-31T05:39:14.019Z,17.20
2022-12-31T05:40:13.052Z,17.30
2022-12-31T05:41:13.111Z,17.20
2022-12-31T05:42:13.152Z,17.30
2022-12-31T05:43:13.453Z,17.30
2022-12-31T05:44:13.389Z,17.20
2022-12-31T05:45:13.447Z,17.30
2022-12-31T05:46:13.650Z,17.10
2022-12-31T05:47:13.879Z,17.20
2022-12-31T05:48:14.338Z,17.30
2022-12-31T05:49:13.384Z,17.50
2022-12-31T05:50:13.417Z,17.40
2022-12-31T05:51:13.629Z,17.30
2022-12-31T05:52:13.663Z,17.40
2022-12-31T05:53:13.731Z,17.10
2022-12-31T05:54:13.722Z,17.40
2022-12-31T05:55:14.599Z,17.40
2022-12-31T05:56:13.612Z,17.40
2022-12-31T05:57:13.597Z,17.30
2022-12-31T05:58:13.552Z,17.40
2022-12-31T05:59:13.939Z,17.30
2022-12-31T06:00:12.921Z,17.40
2022-12-31T06:01:12.898Z,17.40
2022-12-31T06:02:13.071Z,17.50
2022-12-31T06:03:13.420Z,17.50
2022-12-31T06:04:13.508Z,17.40
2022-12-31T06:05:13.840Z,17.50
2022-12-31T06:06:14.180Z,17.50
2022-12-31T06:07:13.876Z,17.60
2022-12-31T06:08:22.948Z,17.30
2022-12-31T06:09:18.039Z,17.30
2022-12-31T06:10:13.010Z,17.30
2022-12-31T06:11:13.202Z,17.50
2022-12-31T06:12:13.307Z,17.60
2022-12-31T06:13:13.567Z,17.40
2022-12-31T06:14:14.069Z,17.40
2022-12-31T06:15:13.063Z,17.40
2022-12-31T06:16:13.287Z,17.50
2022-12-31T06:17:13.288Z,17.60
2022-12-31T06:18:13.319Z,17.60
2022-12-31T06:19:13.686Z,17.50
2022-12-31T06:20:13.645Z,17.60
2022-12-31T06:21:13.882Z,17.50
2022-12-31T06:22:14.010Z,17.50
2022-12-31T06:23:13.330Z,17.80
2022-12-31T06:24:13.407Z,17.90
2022-12-31T06:25:13.836Z,17.70
2022-12-31T06:26:13.988Z,17.50
2022-12-31T06:27:13.421Z,17.60
2022-12-31T06:28:19.807Z,17.70
2022-12-31T06:29:13.948Z,17.60
2022-12-31T06:30:12.892Z,17.70
2022-12-31T06:31:12.867Z,17.60
2022-12-31T06:32:12.922Z,17.70
2022-12-31T06:33:12.942Z,17.40
2022-12-31T06:34:12.934Z,17.70
2022-12-31T06:35:13.156Z,17.60
2022-12-31T06:36:13.118Z,17.50
2022-12-31T06:37:13.275Z,17.60
2022-12-31T06:38:13.303Z,17.80
2022-12-31T06:39:13.369Z,17.60
2022-12-31T06:40:13.491Z,17.60
2022-12-31T06:41:13.715Z,17.80
2022-12-31T06:42:13.872Z,17.60
2022-12-31T06:43:14.175Z,17.70
2022-12-31T06:44:13.851Z,17.60
2022-12-31T06:45:14.083Z,17.60
2022-12-31T06:46:13.074Z,17.50
2022-12-31T06:47:18.073Z,17.60
2022-12-31T06:48:12.933Z,17.60
2022-12-31T06:49:13.236Z,17.40
2022-12-31T06:50:13.190Z,17.50
2022-12-31T06:51:16.742Z,17.50
2022-12-31T06:52:13.241Z,17.50
2022-12-31T06:53:13.481Z,17.50
2022-12-31T06:54:13.465Z,17.50
2022-12-31T06:55:13.577Z,17.40
2022-12-31T06:56:13.866Z,17.50
2022-12-31T06:57:13.814Z,17.50
2022-12-31T06:58:13.652Z,17.60
2022-12-31T06:59:13.962Z,17.50
2022-12-31T07:00:13.213Z,17.40
2022-12-31T07:01:13.175Z,17.30
2022-12-31T07:02:13.252Z,17.60
2022-12-31T07:03:13.562Z,17.60
2022-12-31T07:04:13.616Z,17.50
2022-12-31T07:05:13.544Z,17.60
2022-12-31T07:06:13.821Z,17.50
2022-12-31T07:07:13.760Z,17.70
2022-12-31T07:08:13.796Z,17.60
2022-12-31T07:09:14.061Z,17.60
2022-12-31T07:10:13.057Z,17.60
2022-12-31T07:11:13.378Z,17.70
2022-12-31T07:12:13.368Z,17.60
2022-12-31T07:13:13.595Z,17.60
2022-12-31T07:14:13.699Z,17.60
2022-12-31T07:15:13.638Z,17.30
2022-12-31T07:16:14.075Z,17.50
2022-12-31T07:17:13.128Z,17.60
2022-12-31T07:18:12.990Z,17.60
2022-12-31T07:19:13.144Z,17.60
2022-12-31T07:20:13.201Z,17.70
2022-12-31T07:21:13.274Z,17.70
2022-12-31T07:22:13.329Z,17.90
2022-12-31T07:23:13.321Z,17.60
2022-12-31T07:24:13.706Z,17.60
2022-12-31T07:25:14.080Z,17.70
2022-12-31T07:26:13.025Z,17.80
2022-12-31T07:27:12.948Z,17.60
2022-12-31T07:28:12.914Z,17.60
2022-12-31T07:29:12.902Z,17.70
2022-12-31T07:30:12.877Z,17.80
2022-12-31T07:31:13.868Z,17.80
2022-12-31T07:32:13.180Z,18.00
2022-12-31T07:33:13.271Z,17.70
2022-12-31T07:34:13.345Z,17.80
2022-12-31T07:35:13.407Z,17.80
2022-12-31T07:36:13.631Z,17.90
2022-12-31T07:37:13.544Z,17.90
2022-12-31T07:38:13.494Z,17.80
2022-12-31T07:39:13.347Z,17.90
2022-12-31T07:40:13.558Z,18.10
2022-12-31T07:41:13.768Z,17.90
2022-12-31T07:42:14.102Z,17.90
2022-12-31T07:43:13.193Z,18.00
2022-12-31T07:44:13.091Z,17.80
2022-12-31T07:45:18.301Z,17.80
2022-12-31T07:46:13.677Z,17.90
2022-12-31T07:47:14.199Z,18.00
2022-12-31T07:48:13.505Z,18.00
2022-12-31T07:49:13.751Z,17.90
2022-12-31T07:50:13.760Z,17.70
2022-12-31T07:51:14.077Z,17.90
2022-12-31T07:52:13.029Z,17.90
2022-12-31T07:53:13.095Z,17.80
2022-12-31T07:54:14.162Z,17.90
2022-12-31T07:55:13.679Z,18.20
2022-12-31T07:56:13.865Z,17.70
2022-12-31T07:57:14.278Z,17.80
2022-12-31T07:58:13.607Z,18.00
2022-12-31T07:59:13.596Z,18.00
2022-12-31T08:00:13.475Z,18.00
2022-12-31T08:01:13.644Z,17.80
2022-12-31T08:02:13.876Z,18.00
2022-12-31T08:03:13.099Z,17.90
2022-12-31T08:04:13.387Z,18.00
2022-12-31T08:05:13.633Z,18.10
2022-12-31T08:06:13.680Z,18.00
2022-12-31T08:07:13.592Z,17.90
2022-12-31T08:08:15.237Z,18.00
2022-12-31T08:09:13.831Z,18.10
2022-12-31T08:10:18.023Z,17.90
2022-12-31T08:11:13.337Z,17.80
2022-12-31T08:13:27.320Z,18.00
2022-12-31T08:14:13.258Z,18.10
2022-12-31T08:15:13.257Z,17.80
2022-12-31T08:16:13.186Z,18.00
2022-12-31T08:17:13.130Z,18.20
2022-12-31T08:18:13.107Z,18.20
2022-12-31T08:19:13.103Z,17.90
2022-12-31T08:20:13.235Z,18.00
2022-12-31T08:21:13.311Z,18.20
2022-12-31T08:22:13.477Z,17.70
2022-12-31T08:23:14.184Z,17.90
2022-12-31T08:24:13.486Z,17.80
2022-12-31T08:25:13.519Z,17.80
2022-12-31T08:26:13.541Z,17.80
2022-12-31T08:27:13.888Z,17.70
2022-12-31T08:28:12.822Z,17.70
2022-12-31T08:29:13.824Z,17.70
2022-12-31T08:30:13.741Z,17.90
2022-12-31T08:31:13.675Z,17.70
2022-12-31T08:32:13.821Z,18.00
2022-12-31T08:33:13.945Z,17.80
2022-12-31T08:34:13.213Z,17.80
2022-12-31T08:35:13.138Z,18.20
2022-12-31T08:36:13.496Z,18.00
2022-12-31T08:37:13.693Z,18.10
2022-12-31T08:38:15.164Z,17.80
2022-12-31T08:39:13.091Z,18.10
2022-12-31T08:40:13.109Z,17.90
2022-12-31T08:41:13.444Z,17.90
2022-12-31T08:42:13.308Z,17.90
2022-12-31T08:43:13.317Z,18.00
2022-12-31T08:44:13.259Z,18.00
2022-12-31T08:45:14.563Z,18.10
2022-12-31T08:46:14.066Z,18.00
2022-12-31T08:47:13.059Z,18.10
2022-12-31T08:48:12.998Z,18.00
2022-12-31T08:49:13.267Z,18.20
2022-12-31T08:50:13.240Z,18.10
2022-12-31T08:51:13.180Z,18.00
2022-12-31T08:52:13.027Z,18.10
2022-12-31T08:53:13.052Z,18.10
2022-12-31T08:54:12.932Z,18.10
2022-12-31T08:55:17.869Z,18.10
2022-12-31T08:56:13.810Z,18.20
2022-12-31T08:57:14.092Z,18.00
2022-12-31T08:58:40.179Z,17.90
2022-12-31T08:59:13.652Z,18.00
2022-12-31T09:00:13.602Z,18.00
2022-12-31T09:01:13.534Z,18.00
2022-12-31T09:02:13.641Z,17.90
2022-12-31T09:03:18.784Z,18.00
2022-12-31T09:04:13.759Z,18.30
2022-12-31T09:05:13.731Z,18.00
2022-12-31T09:06:18.837Z,18.20
2022-12-31T09:07:12.763Z,18.20
2022-12-31T09:08:13.654Z,18.10
2022-12-31T09:09:34.039Z,18.30
2022-12-31T09:10:13.257Z,18.20
2022-12-31T09:11:17.716Z,18.20
2022-12-31T09:12:12.981Z,18.40
2022-12-31T09:13:12.874Z,18.40
2022-12-31T09:14:14.202Z,18.20
2022-12-31T09:15:13.485Z,18.10
2022-12-31T09:16:13.969Z,18.10
2022-12-31T09:17:13.218Z,18.10
2022-12-31T09:18:13.257Z,18.10
2022-12-31T09:19:13.692Z,18.30
2022-12-31T09:20:13.895Z,18.30
2022-12-31T09:21:13.098Z,18.30
2022-12-31T09:22:13.302Z,18.10
2022-12-31T09:23:18.301Z,18.20
2022-12-31T09:24:13.364Z,18.20
2022-12-31T09:25:13.339Z,18.30
2022-12-31T09:26:13.374Z,18.40
2022-12-31T09:27:25.445Z,18.20
2022-12-31T09:28:13.631Z,18.20
2022-12-31T09:29:13.645Z,18.10
2022-12-31T09:30:13.615Z,18.20
2022-12-31T09:31:13.608Z,18.30
2022-12-31T09:32:18.640Z,18.50
2022-12-31T09:33:13.609Z,18.20
2022-12-31T09:34:13.567Z,18.20
2022-12-31T09:35:13.831Z,18.20
2022-12-31T09:36:14.174Z,18.30
2022-12-31T09:37:13.390Z,18.30
2022-12-31T09:38:14.365Z,18.30
2022-12-31T09:39:13.327Z,18.30
2022-12-31T09:40:13.364Z,18.40
2022-12-31T09:41:13.484Z,18.20
2022-12-31T09:42:13.549Z,18.30
2022-12-31T09:43:15.059Z,18.20
2022-12-31T09:44:13.425Z,18.40
2022-12-31T09:45:13.591Z,18.20
2022-12-31T09:46:13.664Z,18.20
2022-12-31T09:47:13.638Z,18.20
2022-12-31T09:48:14.822Z,18.20
2022-12-31T09:49:13.712Z,18.30
2022-12-31T09:50:13.767Z,18.20
2022-12-31T09:51:14.241Z,18.20
2022-12-31T09:52:13.375Z,18.30
2022-12-31T09:53:13.257Z,18.30
2022-12-31T09:54:13.189Z,18.00
2022-12-31T09:55:13.102Z,18.20
2022-12-31T09:56:13.052Z,18.30
2022-12-31T09:57:13.129Z,18.20
2022-12-31T09:58:13.467Z,18.20
2022-12-31T09:59:13.579Z,18.30
2022-12-31T10:00:13.694Z,18.30
2022-12-31T10:01:13.900Z,18.30
2022-12-31T10:02:13.143Z,18.30
2022-12-31T10:03:13.744Z,18.30
2022-12-31T10:04:14.135Z,18.50
2022-12-31T10:05:13.061Z,18.30
2022-12-31T10:06:12.994Z,18.40
2022-12-31T10:07:12.942Z,18.40
2022-12-31T10:08:12.874Z,18.20
2022-12-31T10:09:13.900Z,18.30
2022-12-31T10:10:12.922Z,18.20
2022-12-31T10:11:12.947Z,18.30
2022-12-31T10:12:12.932Z,18.40
2022-12-31T10:13:12.968Z,18.40
2022-12-31T10:14:13.319Z,18.00
2022-12-31T10:15:13.489Z,18.20
2022-12-31T10:16:13.665Z,18.20
2022-12-31T10:17:13.937Z,18.40
2022-12-31T10:18:13.189Z,18.20
2022-12-31T10:19:13.377Z,18.30
2022-12-31T10:20:13.499Z,18.30
2022-12-31T10:21:13.424Z,18.60
2022-12-31T10:22:13.376Z,18.40
2022-12-31T10:23:13.277Z,18.50
2022-12-31T10:24:13.314Z,18.50
2022-12-31T10:25:13.304Z,18.70
2022-12-31T10:26:13.190Z,18.50
2022-12-31T10:27:13.120Z,18.50
2022-12-31T10:28:13.161Z,18.30
2022-12-31T10:29:13.073Z,18.40
2022-12-31T10:30:13.020Z,18.40
2022-12-31T10:31:13.036Z,18.50
2022-12-31T10:32:13.450Z,18.30
2022-12-31T10:33:13.673Z,18.30
2022-12-31T10:34:13.615Z,18.40
2022-12-31T10:35:13.613Z,18.60
2022-12-31T10:36:14.001Z,18.70
2022-12-31T10:37:13.174Z,18.70
2022-12-31T10:38:13.143Z,18.70
2022-12-31T10:39:16.409Z,18.80
2022-12-31T10:40:13.556Z,18.80
2022-12-31T10:41:13.636Z,18.60
2022-12-31T10:42:13.586Z,18.80
2022-12-31T10:43:13.481Z,18.80
2022-12-31T10:44:13.573Z,18.60
2022-12-31T10:45:13.489Z,18.80
2022-12-31T10:46:17.593Z,18.60
2022-12-31T10:47:12.923Z,18.60
2022-12-31T10:48:12.955Z,18.60
2022-12-31T10:49:12.909Z,18.40
2022-12-31T10:50:12.820Z,18.40
2022-12-31T10:51:13.812Z,18.50
2022-12-31T10:52:13.862Z,18.60
2022-12-31T10:53:14.200Z,18.60
2022-12-31T10:54:13.140Z,18.50
2022-12-31T10:55:13.174Z,18.30
2022-12-31T10:56:13.335Z,18.50
2022-12-31T10:57:13.594Z,18.50
2022-12-31T10:58:13.415Z,18.80
2022-12-31T10:59:13.746Z,18.60
2022-12-31T11:00:13.768Z,18.70
2022-12-31T11:01:13.951Z,18.40
2022-12-31T11:02:13.115Z,18.50
2022-12-31T11:03:13.534Z,18.60
2022-12-31T11:04:13.454Z,18.50
2022-12-31T11:05:13.842Z,18.40
2022-12-31T11:06:14.280Z,18.50
2022-12-31T11:07:13.228Z,18.70
2022-12-31T11:08:13.110Z,18.80
2022-12-31T11:09:13.193Z,18.50
2022-12-31T11:10:13.084Z,18.70
2022-12-31T11:11:12.963Z,18.40
2022-12-31T11:12:12.930Z,18.50
2022-12-31T11:13:13.075Z,18.70
2022-12-31T11:14:13.017Z,18.50
2022-12-31T11:15:13.110Z,18.70
2022-12-31T11:16:13.418Z,19.00
2022-12-31T11:17:13.489Z,18.90
2022-12-31T11:18:13.372Z,19.10
2022-12-31T11:19:13.711Z,19.30
2022-12-31T11:20:13.975Z,19.60
2022-12-31T11:21:13.295Z,20.00
2022-12-31T11:22:13.347Z,19.00
2022-12-31T11:23:13.880Z,19.40
2022-12-31T11:24:13.221Z,19.00
2022-12-31T11:25:13.464Z,18.90
2022-12-31T11:26:13.816Z,19.20
2022-12-31T11:27:13.843Z,19.40
2022-12-31T11:28:13.844Z,19.10
2022-12-31T11:29:14.065Z,18.70
2022-12-31T11:30:12.989Z,19.10
2022-12-31T11:31:13.316Z,19.30
2022-12-31T11:32:13.519Z,18.90
2022-12-31T11:33:13.661Z,18.80
2022-12-31T11:34:13.651Z,18.90
2022-12-31T11:35:13.677Z,19.00
2022-12-31T11:36:13.698Z,18.80
2022-12-31T11:37:14.401Z,18.70
2022-12-31T11:38:13.563Z,19.00
2022-12-31T11:39:18.656Z,18.70
2022-12-31T11:40:13.756Z,18.70
2022-12-31T11:41:13.731Z,18.80
2022-12-31T11:42:13.715Z,18.90
2022-12-31T11:43:13.876Z,18.90
2022-12-31T11:44:14.004Z,18.80
2022-12-31T11:45:13.302Z,18.80
2022-12-31T11:46:13.472Z,18.70
2022-12-31T11:47:14.135Z,18.80
2022-12-31T11:48:30.706Z,18.80
2022-12-31T11:49:13.732Z,18.60
2022-12-31T11:50:13.896Z,18.70
2022-12-31T11:51:12.852Z,18.60
2022-12-31T11:52:18.257Z,18.70
2022-12-31T11:53:18.118Z,18.70
2022-12-31T11:54:13.807Z,18.90
2022-12-31T11:55:13.807Z,18.80
2022-12-31T11:56:13.881Z,18.70
2022-12-31T11:57:13.231Z,18.70
2022-12-31T11:58:13.427Z,18.80
2022-12-31T11:59:19.086Z,18.70
2022-12-31T12:00:13.841Z,18.90
2022-12-31T12:01:13.940Z,18.80
2022-12-31T12:02:13.155Z,18.60
2022-12-31T12:03:13.047Z,18.60
2022-12-31T12:04:13.232Z,18.60
2022-12-31T12:05:13.206Z,18.70
2022-12-31T12:06:13.543Z,18.60
2022-12-31T12:07:13.455Z,18.70
2022-12-31T12:08:14.055Z,18.80
2022-12-31T12:09:13.655Z,18.90
2022-12-31T12:10:13.802Z,18.90
2022-12-31T12:11:14.001Z,18.50
2022-12-31T12:12:12.990Z,18.80
2022-12-31T12:13:13.277Z,18.70
2022-12-31T12:14:13.206Z,19.10
2022-12-31T12:15:13.079Z,18.80
2022-12-31T12:16:13.005Z,18.40
2022-12-31T12:17:14.263Z,18.70
2022-12-31T12:18:13.317Z,18.60
2022-12-31T12:19:13.287Z,18.60
2022-12-31T12:20:13.461Z,18.80
2022-12-31T12:21:13.401Z,18.50
2022-12-31T12:22:14.434Z,18.60
2022-12-31T12:23:13.514Z,18.40
2022-12-31T12:24:13.651Z,18.50
2022-12-31T12:25:13.592Z,18.30
2022-12-31T12:26:13.635Z,18.20
2022-12-31T12:27:13.619Z,18.40
2022-12-31T12:28:13.577Z,18.30
2022-12-31T12:29:13.494Z,18.10
2022-12-31T12:30:13.645Z,18.30
2022-12-31T12:31:15.061Z,18.10
2022-12-31T12:32:13.253Z,17.80
2022-12-31T12:33:13.215Z,17.90
2022-12-31T12:34:13.143Z,17.70
2022-12-31T12:35:13.170Z,17.60
2022-12-31T12:36:13.218Z,17.90
2022-12-31T12:37:13.453Z,18.00
2022-12-31T12:38:13.667Z,18.10
2022-12-31T12:39:13.949Z,18.10
2022-12-31T12:40:13.134Z,17.80
2022-12-31T12:41:13.370Z,18.00
2022-12-31T12:42:13.420Z,18.10
2022-12-31T12:43:13.470Z,17.90
2022-12-31T12:44:13.346Z,17.80
2022-12-31T12:45:13.385Z,17.40
2022-12-31T12:46:13.576Z,17.40
2022-12-31T12:47:14.168Z,17.40
2022-12-31T12:48:13.253Z,17.10
2022-12-31T12:49:13.520Z,17.10
2022-12-31T12:50:13.529Z,17.10
2022-12-31T12:51:14.151Z,17.00
2022-12-31T12:52:13.173Z,17.10
2022-12-31T12:53:13.184Z,16.90